Time;durP1;ratioP1;P1;durP2;ratioP2;P2;SDS_P1;SDS_P2;PMS_P1;PMS_P2;Temp;Humidity;BMP_temperature;BMP_pressure;BME280_temperature;BME280_humidity;BME280_pressure;Samples;Min_cycle;Max_cycle;Signal;HPM_P1;HPM_P2
2023/10/13 00:01:08;;;;;;;4.63;3.15;;;18.30;98.70;;;;;;5052325;28;20028;-68
2023/10/13 00:03:33;;;;;;;7.28;3.42;;;18.30;98.80;;;;;;5052771;28;20111;-68
2023/10/13 00:06:03;;;;;;;9.15;3.72;;;18.30;98.60;;;;;;5053371;28;20040;-68
2023/10/13 00:08:29;;;;;;;5.68;3.55;;;18.30;98.90;;;;;;5048079;28;20116;-68
2023/10/13 00:10:59;;;;;;;6.78;3.42;;;18.20;98.80;;;;;;5047967;28;20374;-68
2023/10/13 00:13:26;;;;;;;6.95;3.75;;;18.20;99.00;;;;;;5051255;28;20414;-68
2023/10/13 00:15:58;;;;;;;7.55;3.45;;;18.10;99.00;;;;;;5052846;28;20082;-68
2023/10/13 00:18:41;;;;;;;7.47;3.75;;;18.00;99.00;;;;;;5052318;28;20470;-68
2023/10/13 00:21:12;;;;;;;7.57;3.50;;;17.90;99.00;;;;;;5047730;28;20054;-68
2023/10/13 00:23:54;;;;;;;9.27;3.63;;;17.80;98.80;;;;;;5051756;28;20032;-68
2023/10/13 00:26:29;;;;;;;8.43;3.85;;;17.70;99.00;;;;;;5050821;28;20145;-68
2023/10/13 00:29:01;;;;;;;9.32;3.65;;;17.60;98.80;;;;;;5052467;28;20021;-68
2023/10/13 00:31:33;;;;;;;9.95;3.70;;;17.60;98.50;;;;;;5047839;28;20033;-68
2023/10/13 00:34:09;;;;;;;9.63;4.10;;;17.60;98.60;;;;;;5051432;28;20493;-68
2023/10/13 00:36:35;;;;;;;12.10;3.80;;;17.60;98.20;;;;;;5050732;28;20067;-68
2023/10/13 00:39:01;;;;;;;10.90;3.85;;;17.60;98.20;;;;;;5051541;28;20025;-68
2023/10/13 00:44:10;;;;;;;9.63;3.72;;;17.70;97.70;;;;;;5048381;28;20086;-68
2023/10/13 00:46:38;;;;;;;9.05;3.78;;;17.80;97.60;;;;;;5051908;28;20029;-68
2023/10/13 00:49:08;;;;;;;10.48;3.92;;;17.70;97.50;;;;;;5047425;28;20053;-68
2023/10/13 00:51:40;;;;;;;6.68;3.92;;;17.80;97.30;;;;;;5053530;28;20079;-68
2023/10/13 00:54:12;;;;;;;6.18;3.28;;;17.80;97.30;;;;;;5050569;28;20025;-68
2023/10/13 00:56:46;;;;;;;7.07;3.22;;;17.80;97.20;;;;;;5047937;28;20518;-68
2023/10/13 00:59:13;;;;;;;5.60;3.30;;;17.80;97.20;;;;;;5048914;28;20045;-68
2023/10/13 01:01:42;;;;;;;7.03;3.95;;;17.80;97.30;;;;;;5051033;28;20435;-68
2023/10/13 01:04:11;;;;;;;8.35;3.17;;;17.80;97.40;;;;;;5053347;28;20112;-68
2023/10/13 01:06:37;;;;;;;5.93;3.47;;;17.70;97.60;;;;;;5049863;28;20052;-68
2023/10/13 01:09:16;;;;;;;7.35;3.28;;;17.60;97.60;;;;;;5048483;28;20069;-68
2023/10/13 01:11:48;;;;;;;7.70;3.45;;;17.50;97.80;;;;;;5047544;28;20029;-68
2023/10/13 01:14:18;;;;;;;5.68;3.47;;;17.50;98.00;;;;;;5050888;28;20021;-68
2023/10/13 01:16:45;;;;;;;5.30;3.33;;;17.40;98.20;;;;;;5051485;28;20125;-68
2023/10/13 01:19:19;;;;;;;6.38;3.28;;;17.40;98.20;;;;;;5050453;28;20041;-68
2023/10/13 01:21:47;;;;;;;6.07;3.15;;;17.30;98.30;;;;;;5048231;28;20021;-68
2023/10/13 01:24:18;;;;;;;7.72;3.78;;;17.30;98.40;;;;;;5049662;28;20027;-68
2023/10/13 01:26:44;;;;;;;13.30;3.50;;;17.20;98.50;;;;;;5051573;28;20029;-68
2023/10/13 01:29:13;;;;;;;8.98;3.80;;;17.10;98.60;;;;;;5047365;28;20435;-68
2023/10/13 01:31:46;;;;;;;10.90;4.30;;;17.10;98.80;;;;;;5052113;28;20446;-68
2023/10/13 01:34:21;;;;;;;10.55;4.35;;;17.00;98.90;;;;;;5048750;28;20135;-68
2023/10/13 01:36:54;;;;;;;10.45;3.65;;;17.00;98.90;;;;;;5051495;28;20454;-68
2023/10/13 01:39:21;;;;;;;8.52;3.92;;;17.10;98.70;;;;;;5052409;28;20051;-68
2023/10/13 01:41:55;;;;;;;9.38;3.88;;;17.10;98.70;;;;;;5057877;28;20028;-68
2023/10/13 01:44:21;;;;;;;9.95;3.50;;;17.10;98.50;;;;;;5052695;28;20445;-68
2023/10/13 01:46:47;;;;;;;7.63;3.80;;;17.20;98.50;;;;;;5053143;28;20021;-69
2023/10/13 01:49:15;;;;;;;6.90;3.75;;;17.20;98.50;;;;;;5050608;28;20036;-68
2023/10/13 01:51:41;;;;;;;8.32;3.63;;;17.20;98.40;;;;;;5057523;28;20130;-68
2023/10/13 01:54:11;;;;;;;9.27;4.05;;;17.30;98.60;;;;;;5052923;28;20057;-68
2023/10/13 01:56:42;;;;;;;;;;;17.20;98.70;;;;;;5048352;28;20029;-68
2023/10/13 01:59:09;;;;;;;9.20;4.00;;;17.20;98.80;;;;;;5053582;28;19905;-68
2023/10/13 02:01:35;;;;;;;8.82;4.60;;;17.10;98.90;;;;;;5054401;28;20024;-68
2023/10/13 02:04:04;;;;;;;8.32;3.63;;;17.10;99.20;;;;;;5053679;28;20040;-68
2023/10/13 02:06:36;;;;;;;7.72;3.25;;;17.00;99.40;;;;;;5056174;28;20482;-68
2023/10/13 02:11:41;;;;;;;8.70;3.55;;;16.80;99.60;;;;;;5053548;28;20021;-68
2023/10/13 02:14:07;;;;;;;5.35;3.45;;;16.70;99.60;;;;;;5054098;28;20018;-68
2023/10/13 02:16:33;;;;;;;6.85;3.60;;;16.60;99.50;;;;;;5054797;28;20028;-68
2023/10/13 02:19:04;;;;;;;8.50;3.38;;;16.60;99.50;;;;;;5052933;28;20031;-68
2023/10/13 02:21:38;;;;;;;8.48;3.75;;;16.70;99.60;;;;;;5053253;28;20070;-68
2023/10/13 02:24:13;;;;;;;9.07;3.90;;;16.70;99.50;;;;;;5052129;28;20025;-68
2023/10/13 02:26:40;;;;;;;8.13;3.75;;;16.70;99.40;;;;;;5053922;28;20025;-68
2023/10/13 02:29:08;;;;;;;7.18;3.92;;;16.80;99.50;;;;;;5054817;28;20032;-68
2023/10/13 02:31:39;;;;;;;9.95;4.28;;;16.80;99.40;;;;;;5052857;28;20021;-68
2023/10/13 02:34:08;;;;;;;7.90;4.05;;;16.80;99.50;;;;;;5051798;28;20412;-68
2023/10/13 02:36:48;;;;;;;7.97;3.55;;;16.80;99.60;;;;;;5053607;28;20025;-68
2023/10/13 02:39:16;;;;;;;9.55;4.38;;;16.80;99.60;;;;;;5053291;28;20475;-69
2023/10/13 02:41:47;;;;;;;9.45;4.47;;;16.80;99.90;;;;;;5055437;28;20029;-68
2023/10/13 02:44:20;;;;;;;10.38;4.93;;;16.80;99.90;;;;;;5050946;28;20036;-68
2023/10/13 02:46:50;;;;;;;10.18;4.30;;;16.70;99.90;;;;;;5054583;28;20470;-68
2023/10/13 02:49:19;;;;;;;11.07;3.83;;;16.70;99.90;;;;;;5051731;28;20033;-68
2023/10/13 02:51:45;;;;;;;6.57;3.92;;;16.60;99.90;;;;;;5053979;28;20538;-68
2023/10/13 02:54:20;;;;;;;10.05;4.07;;;16.50;99.90;;;;;;5053402;28;20060;-68
2023/10/13 02:56:56;;;;;;;10.70;3.85;;;16.40;99.90;;;;;;5067928;28;20454;-68
2023/10/13 02:59:34;;;;;;;9.90;3.97;;;16.40;99.90;;;;;;5068209;28;20492;-68
2023/10/13 03:02:17;;;;;;;7.35;3.70;;;16.40;99.90;;;;;;5063106;28;20021;-68
2023/10/13 03:04:50;;;;;;;7.68;3.58;;;16.40;99.90;;;;;;5044321;28;20141;-68
2023/10/13 03:07:22;;;;;;;9.38;4.15;;;16.40;99.90;;;;;;5062939;28;20921;-68
2023/10/13 03:09:51;;;;;;;9.00;4.40;;;16.30;99.90;;;;;;5055300;28;20463;-68
2023/10/13 03:12:21;;;;;;;6.30;3.38;;;16.30;99.90;;;;;;5058922;28;20071;-67
2023/10/13 03:14:57;;;;;;;9.23;4.00;;;16.30;99.80;;;;;;5060561;28;20075;-68
2023/10/13 03:17:34;;;;;;;14.88;3.95;;;16.30;99.90;;;;;;5067404;28;20028;-68
2023/10/13 03:20:00;;;;;;;8.32;4.10;;;16.40;99.70;;;;;;5060390;28;20385;-69
2023/10/13 03:22:32;;;;;;;10.20;4.00;;;16.50;99.60;;;;;;5066932;28;20035;-68
2023/10/13 03:25:07;;;;;;;7.00;3.67;;;16.60;99.40;;;;;;5060274;28;20048;-68
2023/10/13 03:30:14;;;;;;;8.48;3.90;;;16.70;99.20;;;;;;5056500;28;20280;-69
2023/10/13 03:32:48;;;;;;;6.78;3.72;;;16.80;99.20;;;;;;5053979;28;20043;-68
2023/10/13 03:35:24;;;;;;;10.43;4.22;;;16.80;99.30;;;;;;5055105;28;20058;-68
2023/10/13 03:37:50;;;;;;;11.77;3.85;;;16.80;99.30;;;;;;5051908;28;20025;-68
2023/10/13 03:43:10;;;;;;;9.27;4.03;;;16.70;99.50;;;;;;5058800;28;20461;-68
2023/10/13 03:45:42;;;;;;;8.35;3.80;;;16.70;99.90;;;;;;5046504;28;20496;-68
2023/10/13 03:51:10;;;;;;;10.07;3.90;;;16.50;99.90;;;;;;5062304;28;20025;-68
2023/10/13 03:53:52;;;;;;;5.93;4.18;;;16.40;99.90;;;;;;5042471;28;20036;-68
2023/10/13 03:56:28;;;;;;;14.20;5.30;;;16.30;99.90;;;;;;5061117;28;20051;-68
2023/10/13 03:58:59;;;;;;;7.75;3.85;;;16.20;99.90;;;;;;5068948;28;20031;-68
2023/10/13 04:01:31;;;;;;;9.55;4.13;;;16.10;99.90;;;;;;5051974;28;20371;-67
2023/10/13 04:04:03;;;;;;;11.00;4.65;;;16.10;99.90;;;;;;5058165;28;20053;-67
2023/10/13 04:17:27;;;;;;;19.05;8.10;;;16.10;99.90;;;;;;5067217;28;20041;-67
2023/10/13 04:23:26;;;;;;;33.33;11.10;;;15.90;99.90;;;;;;5066676;28;20024;-68
2023/10/13 04:36:55;;;;;;;22.83;8.57;;;15.20;99.90;;;;;;5049477;28;20028;-68
2023/10/13 04:41:57;;;;;;;24.60;8.52;;;15.00;99.90;;;;;;5067096;28;20112;-68
2023/10/13 04:47:17;;;;;;;21.20;8.45;;;14.70;99.90;;;;;;5054767;28;20037;-68
2023/10/13 04:52:26;;;;;;;17.60;7.95;;;14.60;99.90;;;;;;5059170;28;20029;-68
2023/10/13 04:54:55;;;;;;;13.50;6.45;;;14.60;99.90;;;;;;5057806;28;20488;-67
2023/10/13 05:51:33;;;;;;;8.15;3.70;;;16.30;99.90;;;;;;5048752;28;20032;-68
2023/10/13 06:29:58;;;;;;;29.55;9.27;;;16.50;99.90;;;;;;5049165;28;20160;-66
2023/10/13 06:32:27;;;;;;;24.33;9.35;;;16.40;99.90;;;;;;5061324;28;20108;-66
2023/10/13 06:35:07;;;;;;;90.15;14.88;;;16.40;99.90;;;;;;5058584;28;20044;-66
2023/10/13 06:37:34;;;;;;;104.15;14.90;;;16.40;99.90;;;;;;5045368;28;20462;-66
2023/10/13 06:40:33;;;;;;;50.70;11.15;;;16.40;99.90;;;;;;5061188;28;20487;-66
2023/10/13 06:43:12;;;;;;;22.75;7.88;;;16.40;99.90;;;;;;5055000;28;20413;-67
2023/10/13 06:45:38;;;;;;;22.83;7.67;;;16.40;99.90;;;;;;5047979;28;20112;-70
2023/10/13 06:48:05;;;;;;;24.15;7.45;;;16.40;99.90;;;;;;5056294;28;20045;-66
2023/10/13 06:50:39;;;;;;;33.10;6.78;;;16.50;99.90;;;;;;5048769;28;20078;-67
2023/10/13 06:53:05;;;;;;;17.17;6.13;;;16.60;99.90;;;;;;5053988;28;20068;-67
2023/10/13 06:55:35;;;;;;;21.80;6.90;;;16.80;99.90;;;;;;5059028;28;20037;-68
2023/10/13 06:58:01;;;;;;;12.85;6.05;;;17.00;99.90;;;;;;5065862;28;20054;-72
2023/10/13 07:00:29;;;;;;;15.05;6.15;;;17.00;99.90;;;;;;5046539;28;20086;-67
2023/10/13 07:05:59;;;;;;;16.25;7.22;;;17.20;99.90;;;;;;4994493;28;20495;-67
2023/10/13 07:08:25;;;;;;;18.08;6.40;;;17.40;99.90;;;;;;5034213;28;20037;-67
2023/10/13 07:11:17;;;;;;;17.38;6.25;;;17.40;99.90;;;;;;5057588;28;20104;-67
2023/10/13 07:13:49;;;;;;;15.57;5.75;;;17.50;99.90;;;;;;5043777;28;20030;-67
2023/10/13 07:16:15;;;;;;;14.73;5.93;;;17.50;99.90;;;;;;5046152;28;20033;-67
2023/10/13 07:18:52;;;;;;;17.83;5.95;;;17.50;99.90;;;;;;5056993;28;20091;-67
2023/10/13 07:21:29;;;;;;;14.05;5.75;;;17.70;99.90;;;;;;5053444;28;20017;-68
2023/10/13 07:24:08;;;;;;;11.60;5.20;;;17.90;99.90;;;;;;5067855;28;20028;-67
2023/10/13 07:26:34;;;;;;;15.82;5.40;;;17.90;99.90;;;;;;5042013;28;20048;-67
2023/10/13 07:29:00;;;;;;;12.82;5.70;;;18.10;99.90;;;;;;5053246;28;20029;-67
2023/10/13 07:31:27;;;;;;;14.23;5.38;;;18.20;99.90;;;;;;5059441;28;20110;-67
2023/10/13 07:33:56;;;;;;;11.05;5.57;;;18.30;99.90;;;;;;5056502;28;20516;-67
2023/10/13 07:36:39;;;;;;;11.90;5.03;;;18.40;99.90;;;;;;5060982;28;20036;-68
2023/10/13 07:39:21;;;;;;;10.10;5.22;;;18.40;99.90;;;;;;5053113;28;20032;-68
2023/10/13 07:42:06;;;;;;;10.77;5.00;;;18.50;99.90;;;;;;5062405;28;20070;-67
2023/10/13 07:44:36;;;;;;;9.13;5.40;;;18.50;99.90;;;;;;5048341;28;20033;-67
2023/10/13 07:47:03;;;;;;;;;;;18.60;99.90;;;;;;5059053;28;20664;-67
2023/10/13 07:49:39;;;;;;;11.05;5.05;;;18.70;99.90;;;;;;5048340;28;20338;-67
2023/10/13 07:54:59;;;;;;;6.95;4.00;;;18.90;99.90;;;;;;5056935;28;20025;-67
2023/10/13 07:57:31;;;;;;;10.13;4.07;;;19.00;98.50;;;;;;5061710;28;20025;-69
2023/10/13 08:00:08;;;;;;;10.80;5.00;;;19.10;96.40;;;;;;5051187;28;20029;-67
2023/10/13 08:03:07;;;;;;;18.92;5.13;;;19.30;96.90;;;;;;5056046;28;20033;-66
2023/10/13 08:05:39;;;;;;;15.65;5.60;;;19.50;98.00;;;;;;5061990;28;20059;-67
2023/10/13 08:08:14;;;;;;;14.25;4.90;;;19.80;98.00;;;;;;5050007;28;20028;-65
2023/10/13 08:10:41;;;;;;;13.75;4.85;;;19.80;97.70;;;;;;5056599;28;20482;-67
2023/10/13 08:13:12;;;;;;;10.52;5.28;;;19.80;98.00;;;;;;5058978;28;20052;-67
2023/10/13 08:15:46;;;;;;;9.07;4.88;;;20.00;97.90;;;;;;5051177;28;20032;-67
2023/10/13 08:18:19;;;;;;;21.33;5.70;;;20.00;97.10;;;;;;5051457;28;20341;-67
2023/10/13 08:20:45;;;;;;;14.18;4.65;;;20.10;97.70;;;;;;5056799;28;20040;-67
2023/10/13 08:23:13;;;;;;;10.85;4.93;;;20.10;97.70;;;;;;5062581;28;20032;-66
2023/10/13 08:31:26;;;;;;;10.57;3.78;;;20.50;95.30;;;;;;5061046;28;20086;-67
2023/10/13 08:33:59;;;;;;;13.50;5.03;;;20.60;94.90;;;;;;5064969;28;20117;-68
2023/10/13 08:36:30;;;;;;;13.50;4.38;;;20.70;94.60;;;;;;5048925;28;20517;-67
2023/10/13 08:38:56;;;;;;;14.07;4.47;;;20.90;94.70;;;;;;5057101;28;20089;-67
2023/10/13 08:43:50;;;;;;;11.00;4.22;;;21.30;94.10;;;;;;5065667;28;20025;-68
2023/10/13 08:46:29;;;;;;;9.30;4.22;;;21.40;93.80;;;;;;5056023;28;20044;-67
2023/10/13 08:49:39;;;;;;;39.72;6.20;;;21.50;93.80;;;;;;5053999;28;20049;-67
2023/10/13 08:52:38;;;;;;;24.13;5.38;;;21.70;93.60;;;;;;5043061;28;20042;-67
2023/10/13 08:54:45;;;;;;;20.65;4.70;;;22.00;94.20;;;;;;5034302;28;20402;-68
2023/10/13 08:57:32;;;;;;;11.10;3.63;;;22.20;92.80;;;;;;5040373;28;20438;-68
2023/10/13 09:00:26;;;;;;;17.73;4.05;;;22.30;92.70;;;;;;5031007;28;20025;-68
2023/10/13 09:02:59;;;;;;;9.95;3.70;;;22.50;92.30;;;;;;5038622;28;20040;-67
2023/10/13 09:05:54;;;;;;;26.25;4.43;;;22.60;92.20;;;;;;5032035;28;20045;-68
2023/10/13 09:08:30;;;;;;;18.27;4.20;;;22.80;92.00;;;;;;5018103;28;20799;-67
2023/10/13 09:11:10;;;;;;;14.35;4.40;;;22.90;91.80;;;;;;5036094;28;20112;-67
2023/10/13 09:13:46;;;;;;;10.50;3.50;;;;;;;;;;5027822;28;20021;-68
2023/10/13 09:16:17;;;;;;;11.82;4.40;;;;;;;;;;5029878;28;20084;-67
2023/10/13 09:18:46;;;;;;;10.02;3.88;;;;;;;;;;5030229;28;20034;-67
2023/10/13 09:24:16;;;;;;;10.05;4.00;;;;;;;;;;5046361;28;20405;-66
2023/10/13 09:26:42;;;;;;;11.25;3.30;;;24.40;99.50;;;;;;5037212;28;20371;-66
2023/10/13 09:29:21;;;;;;;12.10;4.03;;;24.40;98.60;;;;;;5040275;28;20036;-66
2023/10/13 09:31:59;;;;;;;11.43;4.35;;;24.40;98.10;;;;;;5034220;28;20076;-70
2023/10/13 09:34:29;;;;;;;14.43;4.25;;;24.50;97.70;;;;;;5039381;28;20036;-67
2023/10/13 09:37:03;;;;;;;11.20;3.85;;;24.60;97.30;;;;;;5029653;28;20426;-66
2023/10/13 09:39:41;;;;;;;12.45;3.22;;;24.70;97.80;;;;;;5039566;28;20029;-66
2023/10/13 09:42:10;;;;;;;11.38;3.47;;;24.80;97.40;;;;;;5037344;28;20037;-66
2023/10/13 09:44:37;;;;;;;11.77;3.38;;;24.90;96.90;;;;;;5035659;28;20492;-66
2023/10/13 09:47:30;;;;;;;10.13;3.83;;;25.00;96.80;;;;;;5040058;28;20024;-66
2023/10/13 09:49:51;;;;;;;11.95;3.88;;;;;;;;;;5049221;28;20037;-66
2023/10/13 09:52:24;;;;;;;17.08;4.35;;;;;;;;;;5059752;28;20017;-66
2023/10/13 09:54:59;;;;;;;16.90;3.58;;;;;;;;;;5049875;28;20040;-66
2023/10/13 09:57:34;;;;;;;8.48;3.00;;;;;;;;;;5061315;28;20033;-66
2023/10/13 10:00:07;;;;;;;14.52;3.28;;;;;;;;;;5053021;28;20398;-67
2023/10/13 10:02:35;;;;;;;10.25;3.70;;;;;;;;;;5058973;28;20021;-66
2023/10/13 10:07:58;;;;;;;13.18;3.60;;;;;;;;;;5043693;28;20025;-67
2023/10/13 10:10:28;;;;;;;9.45;3.22;;;;;;;;;;5055686;28;20025;-70
2023/10/13 10:13:02;;;;;;;12.20;3.47;;;;;;;;;;5062133;28;20032;-68
2023/10/13 10:15:35;;;;;;;12.30;3.92;;;;;;;;;;5057411;28;20395;-71
2023/10/13 10:18:05;;;;;;;13.68;3.40;;;;;;;;;;5060754;28;20014;-66
2023/10/13 10:20:39;;;;;;;11.43;3.53;;;26.40;98.40;;;;;;5060460;28;20477;-66
2023/10/13 10:23:09;;;;;;;5.95;3.40;;;26.40;97.20;;;;;;5056453;28;20359;-66
2023/10/13 10:25:36;;;;;;;10.50;3.78;;;26.40;96.50;;;;;;5060047;28;20029;-66
2023/10/13 10:28:06;;;;;;;4.90;3.10;;;26.60;95.90;;;;;;5051006;28;20032;-66
2023/10/13 10:30:34;;;;;;;8.80;3.10;;;26.60;95.50;;;;;;5066118;28;20033;-66
2023/10/13 10:33:07;;;;;;;9.48;3.53;;;26.50;95.20;;;;;;5070035;28;20029;-66
2023/10/13 10:35:35;;;;;;;7.03;2.88;;;26.60;95.20;;;;;;5056073;28;20037;-66
2023/10/13 10:38:24;;;;;;;5.35;2.72;;;26.60;92.30;;;;;;5052484;28;20048;-66
2023/10/13 10:40:57;;;;;;;9.10;3.10;;;26.80;90.10;;;;;;5065951;28;20052;-66
2023/10/13 10:43:43;;;;;;;10.32;3.95;;;27.00;81.30;;;;;;5070263;28;20409;-66
2023/10/13 10:46:16;;;;;;;9.75;3.20;;;27.10;79.30;;;;;;5052542;28;20024;-65
2023/10/13 10:48:45;;;;;;;9.93;3.35;;;27.10;78.70;;;;;;5058057;28;20068;-67
2023/10/13 10:53:44;;;;;;;9.18;3.38;;;26.90;78.50;;;;;;5053298;28;20036;-66
2023/10/13 10:56:20;;;;;;;6.45;3.38;;;26.90;78.30;;;;;;5049848;28;20056;-66
2023/10/13 10:58:56;;;;;;;11.25;3.55;;;27.00;83.00;;;;;;5063475;28;20107;-66
2023/10/13 11:01:50;;;;;;;9.35;3.50;;;27.10;81.90;;;;;;5057842;28;20103;-66
2023/10/13 11:04:14;;;;;;;8.00;3.40;;;27.30;80.50;;;;;;5059549;28;20025;-67
2023/10/13 11:06:56;;;;;;;6.45;3.20;;;27.50;78.90;;;;;;5049816;28;20098;-66
2023/10/13 11:09:45;;;;;;;15.68;4.13;;;27.40;78.90;;;;;;5066926;28;20033;-66
2023/10/13 11:12:16;;;;;;;9.43;3.00;;;27.30;78.30;;;;;;5058695;28;20470;-66
2023/10/13 11:14:47;;;;;;;11.60;3.47;;;27.30;78.40;;;;;;5064103;28;20116;-66
2023/10/13 11:17:26;;;;;;;10.40;4.03;;;27.30;78.40;;;;;;5067541;28;20147;-66
2023/10/13 11:19:55;;;;;;;13.05;3.90;;;27.50;78.50;;;;;;5056935;28;20389;-67
2023/10/13 11:22:42;;;;;;;10.10;3.85;;;27.60;79.00;;;;;;5065669;28;20204;-66
2023/10/13 11:25:11;;;;;;;13.05;4.00;;;27.60;82.90;;;;;;5067266;28;20024;-66
2023/10/13 11:30:25;;;;;;;8.82;3.17;;;27.80;84.10;;;;;;5054896;28;20689;-67
2023/10/13 11:33:07;;;;;;;9.48;3.47;;;27.80;83.70;;;;;;5063205;28;20115;-67
2023/10/13 11:38:27;;;;;;;11.50;4.03;;;27.70;83.80;;;;;;5054042;28;20485;-66
2023/10/13 11:46:19;;;;;;;10.52;3.63;;;28.00;88.80;;;;;;5047788;28;20025;-66
2023/10/13 11:48:46;;;;;;;9.00;3.22;;;;;;;;;;5063382;28;20041;-66
2023/10/13 11:51:46;;;;;;;8.73;3.45;;;;;;;;;;5068759;28;20267;-65
2023/10/13 11:54:05;;;;;;;9.40;3.38;;;28.70;65.60;;;;;;5047383;28;20029;-65
2023/10/13 11:56:30;;;;;;;12.75;3.72;;;28.90;65.90;;;;;;5065630;28;20028;-65
2023/10/13 11:59:01;;;;;;;8.52;3.60;;;29.10;65.30;;;;;;5068505;28;20040;-66
2023/10/13 12:04:32;;;;;;;12.43;3.53;;;29.40;65.00;;;;;;5057019;28;20028;-66
2023/10/13 12:04:32;;;;;;;4.53;3.15;;;29.70;64.70;;;;;;5055760;28;20029;-66
2023/10/13 12:12:21;;;;;;;9.70;3.30;;;30.50;62.80;;;;;;5059975;28;20024;-65
2023/10/13 12:14:52;;;;;;;12.18;3.83;;;30.50;62.60;;;;;;5046304;28;20029;-65
2023/10/13 12:17:36;;;;;;;8.93;3.45;;;30.60;62.40;;;;;;5033349;28;20368;-65
2023/10/13 12:20:10;;;;;;;7.25;3.75;;;30.70;62.00;;;;;;5055744;28;20037;-67
2023/10/13 12:22:39;;;;;;;8.57;3.33;;;30.60;62.20;;;;;;5053966;28;20478;-66
2023/10/13 12:25:44;;;;;;;9.23;3.63;;;30.80;61.40;;;;;;5041191;28;20065;-66
2023/10/13 12:28:18;;;;;;;6.32;3.20;;;31.00;61.00;;;;;;5047386;28;20041;-65
2023/10/13 12:30:54;;;;;;;6.38;3.63;;;31.10;60.90;;;;;;5065392;28;20758;-65
2023/10/13 12:33:36;;;;;;;11.27;4.20;;;31.20;61.00;;;;;;5058990;28;20040;-65
2023/10/13 12:52:16;;;;;;;9.65;3.95;;;;;;;;;;5056313;28;20346;-66
2023/10/13 12:57:27;;;;;;;15.80;3.58;;;;;;;;;;5059882;28;20123;-66
2023/10/13 12:59:56;;;;;;;7.97;3.73;;;;;;;;;;5051156;28;20052;-65
2023/10/13 13:02:24;;;;;;;14.68;4.18;;;;;;;;;;5055186;28;20021;-66
2023/10/13 13:05:02;;;;;;;8.40;3.75;;;;;;;;;;5063438;28;20079;-65
2023/10/13 13:07:31;;;;;;;8.18;3.50;;;;;;;;;;5059975;28;20112;-65
2023/10/13 13:10:00;;;;;;;12.25;3.60;;;;;;;;;;5058702;28;20394;-65
2023/10/13 13:12:28;;;;;;;8.60;3.80;;;;;;;;;;5053392;28;20029;-65
2023/10/13 13:14:57;;;;;;;15.02;3.63;;;;;;;;;;5054956;28;20060;-66
2023/10/13 13:17:23;;;;;;;7.63;3.60;;;;;;;;;;5052937;28;20032;-66
2023/10/13 13:19:49;;;;;;;10.65;3.72;;;;;;;;;;5054721;28;20097;-66
2023/10/13 13:22:16;;;;;;;11.73;3.78;;;;;;;;;;5056723;28;20049;-66
2023/10/13 13:24:45;;;;;;;12.27;3.70;;;;;;;;;;5065208;28;20040;-66
2023/10/13 13:27:17;;;;;;;8.65;3.45;;;;;;;;;;5053676;28;20482;-66
2023/10/13 13:29:43;;;;;;;10.60;3.90;;;;;;;;;;5053709;28;20025;-65
2023/10/13 13:32:24;;;;;;;8.05;3.42;;;;;;;;;;5065810;28;20027;-66
2023/10/13 13:35:04;;;;;;;10.02;4.00;;;;;;;;;;5060769;28;20025;-66
2023/10/13 13:37:29;;;;;;;11.93;3.38;;;;;;;;;;5054751;28;20025;-65
2023/10/13 13:39:56;;;;;;;8.75;3.65;;;;;;;;;;5065644;28;20078;-64
2023/10/13 13:42:22;;;;;;;7.15;3.83;;;;;;;;;;5073371;28;20024;-66
2023/10/13 13:44:48;;;;;;;7.43;3.83;;;;;;;;;;5057651;28;20437;-66
2023/10/13 13:47:14;;;;;;;8.82;3.95;;;;;;;;;;5064849;28;20056;-66
2023/10/13 13:49:45;;;;;;;10.80;3.00;;;;;;;;;;5068371;28;20089;-66
2023/10/13 13:52:17;;;;;;;8.18;2.95;;;;;;;;;;5064896;28;20059;-65
2023/10/13 13:54:43;;;;;;;7.57;3.50;;;;;;;;;;5059560;28;20028;-65
2023/10/13 13:57:09;;;;;;;10.82;3.72;;;;;;;;;;5067935;28;20024;-66
2023/10/13 13:59:36;;;;;;;7.55;3.30;;;;;;;;;;5067556;28;20017;-65
2023/10/13 14:02:23;;;;;;;10.07;3.65;;;;;;;;;;5057084;28;20033;-66
2023/10/13 14:04:52;;;;;;;12.35;3.65;;;;;;;;;;5057777;28;20037;-67
2023/10/13 14:07:24;;;;;;;7.00;3.55;;;;;;;;;;5049946;28;20028;-67
2023/10/13 14:10:05;;;;;;;7.60;3.28;;;;;;;;;;5056497;28;20036;-66
2023/10/13 14:12:49;;;;;;;5.97;3.10;;;;;;;;;;5064176;28;20040;-65
2023/10/13 14:15:23;;;;;;;7.15;3.15;;;;;;;;;;5067333;28;20036;-66
2023/10/13 14:17:49;;;;;;;8.10;3.33;;;;;;;;;;5053572;28;20381;-66
2023/10/13 14:20:18;;;;;;;10.15;3.38;;;;;;;;;;5057721;28;20021;-66
2023/10/13 14:22:48;;;;;;;8.38;3.38;;;;;;;;;;5068089;28;20136;-66
2023/10/13 14:25:14;;;;;;;12.82;3.42;;;30.40;54.40;;;;;;5069130;28;20064;-65
2023/10/13 14:27:43;;;;;;;4.63;2.72;;;30.30;55.00;;;;;;5056247;28;20499;-65
2023/10/13 14:30:09;;;;;;;5.78;3.25;;;30.10;55.20;;;;;;5060101;28;20021;-65
2023/10/13 14:32:40;;;;;;;11.18;3.22;;;30.00;55.30;;;;;;5069834;28;20024;-66
2023/10/13 14:35:14;;;;;;;8.80;3.10;;;29.90;55.10;;;;;;5058438;28;20037;-65
2023/10/13 14:37:40;;;;;;;16.67;3.08;;;29.80;54.80;;;;;;5044203;28;20036;-65
2023/10/13 14:40:12;;;;;;;8.07;3.38;;;29.60;54.90;;;;;;5057387;28;20036;-66
2023/10/13 14:42:40;;;;;;;5.25;2.72;;;29.50;54.70;;;;;;5072571;28;20111;-65
2023/10/13 14:45:12;;;;;;;7.03;2.60;;;29.40;54.80;;;;;;5060626;28;20036;-66
2023/10/13 14:47:39;;;;;;;8.45;3.13;;;29.40;54.70;;;;;;5054616;28;20048;-65
2023/10/13 14:50:05;;;;;;;5.05;2.72;;;29.30;55.00;;;;;;5069613;28;20151;-65
2023/10/13 14:52:31;;;;;;;8.43;2.85;;;29.20;55.10;;;;;;5061375;28;20233;-66
2023/10/13 14:54:58;;;;;;;8.65;3.67;;;29.20;55.30;;;;;;5059241;28;20033;-66
2023/10/13 14:57:27;;;;;;;9.63;3.40;;;29.20;54.90;;;;;;5065669;28;20033;-66
2023/10/13 14:59:57;;;;;;;5.30;2.92;;;29.20;54.70;;;;;;5047921;28;20534;-66
2023/10/13 15:02:23;;;;;;;11.10;3.00;;;29.00;54.90;;;;;;5057552;28;20100;-65
2023/10/13 15:04:49;;;;;;;9.65;3.17;;;28.90;54.70;;;;;;5065673;28;20154;-65
2023/10/13 15:07:16;;;;;;;7.10;2.85;;;28.90;54.30;;;;;;5057790;28;20021;-65
2023/10/13 15:09:42;;;;;;;5.68;3.40;;;28.90;54.50;;;;;;5054968;28;20033;-65
2023/10/13 15:12:11;;;;;;;4.35;2.90;;;28.80;54.30;;;;;;5054692;28;20017;-66
2023/10/13 15:14:39;;;;;;;12.85;3.05;;;28.70;55.10;;;;;;5059542;28;20040;-65
2023/10/13 15:17:06;;;;;;;5.63;2.53;;;28.60;54.40;;;;;;5065890;28;20025;-66
2023/10/13 15:19:35;;;;;;;8.05;3.17;;;28.60;54.50;;;;;;5056948;28;20029;-66
2023/10/13 15:22:05;;;;;;;6.28;2.80;;;28.50;54.90;;;;;;5060967;28;20043;-65
2023/10/13 15:24:36;;;;;;;;;;;28.40;55.50;;;;;;5063105;28;20040;-65
2023/10/13 15:27:08;;;;;;;;;;;28.40;54.50;;;;;;5052685;28;20058;-66
2023/10/13 15:29:37;;;;;;;6.15;2.60;;;28.40;54.20;;;;;;5053832;28;19913;-66
2023/10/13 15:32:05;;;;;;;6.75;3.03;;;28.40;54.20;;;;;;5062215;28;20044;-66
2023/10/13 15:34:31;;;;;;;12.30;3.38;;;28.30;54.20;;;;;;5070834;28;20059;-66
2023/10/13 15:36:58;;;;;;;4.18;2.70;;;28.20;54.10;;;;;;5056360;28;20035;-66
2023/10/13 15:39:24;;;;;;;4.88;2.60;;;28.00;54.00;;;;;;5061126;28;20048;-65
2023/10/13 15:41:53;;;;;;;13.95;3.22;;;27.90;54.00;;;;;;5070614;28;20028;-66
2023/10/13 15:44:20;;;;;;;9.63;3.42;;;27.80;54.20;;;;;;5052105;28;20029;-66
2023/10/13 15:46:49;;;;;;;6.60;2.65;;;27.60;54.30;;;;;;5058394;28;20501;-66
2023/10/13 15:49:17;;;;;;;6.18;2.83;;;27.40;54.60;;;;;;5053246;28;20672;-67
2023/10/13 15:51:43;;;;;;;5.78;2.90;;;27.30;55.00;;;;;;5051004;28;20061;-67
2023/10/13 15:54:15;;;;;;;6.32;3.15;;;27.10;54.90;;;;;;5050758;28;20045;-67
2023/10/13 15:56:43;;;;;;;9.02;3.30;;;27.00;55.20;;;;;;5050862;28;20029;-67
2023/10/13 15:59:09;;;;;;;6.50;3.28;;;26.90;55.30;;;;;;5049203;28;20051;-71
2023/10/13 16:01:34;;;;;;;6.38;3.22;;;26.70;55.40;;;;;;5053432;28;20021;-68
2023/10/13 16:04:10;;;;;;;4.57;2.50;;;;;;;;;;5049590;28;20028;-67
2023/10/13 16:06:36;;;;;;;7.43;2.80;;;;;;;;;;5051062;28;20379;-67
2023/10/13 16:09:03;;;;;;;5.57;2.55;;;;;;;;;;5052395;28;20032;-67
2023/10/13 16:11:29;;;;;;;5.13;2.45;;;;;;;;;;5052391;28;20036;-68
2023/10/13 16:13:55;;;;;;;4.85;2.28;;;;;;;;;;5061470;28;20017;-66
2023/10/13 16:16:22;;;;;;;5.55;3.03;;;;;;;;;;5059434;28;20032;-71
2023/10/13 16:18:49;;;;;;;4.90;2.50;;;;;;;;;;5051420;28;20413;-67
2023/10/13 16:21:15;;;;;;;6.75;3.05;;;;;;;;;;5057659;28;20028;-67
2023/10/13 16:23:41;;;;;;;5.53;2.97;;;;;;;;;;5064649;28;20142;-66
2023/10/13 16:26:08;;;;;;;4.10;2.83;;;;;;;;;;5062143;28;20028;-67
2023/10/13 16:28:35;;;;;;;9.27;3.20;;;;;;;;;;5057235;28;20082;-67
2023/10/13 16:31:02;;;;;;;6.32;2.75;;;;;;;;;;5062494;28;20027;-67
2023/10/13 16:33:28;;;;;;;4.63;2.58;;;;;;;;;;5047437;28;20039;-66
2023/10/13 16:35:56;;;;;;;5.80;2.55;;;;;;;;;;5048457;28;20033;-67
2023/10/13 16:38:24;;;;;;;4.88;2.60;;;;;;;;;;5040094;28;20390;-67
2023/10/13 16:40:52;;;;;;;3.97;2.30;;;;;;;;;;5054391;28;20024;-67
2023/10/13 16:43:18;;;;;;;6.38;3.03;;;25.10;56.90;;;;;;5061349;28;20016;-66